Time;durP1;ratioP1;P1;durP2;ratioP2;P2;SDS_P1;SDS_P2;PMS_P1;PMS_P2;Temp;Humidity;BMP_temperature;BMP_pressure;BME280_temperature;BME280_humidity;BME280_pressure;Samples;Min_cycle;Max_cycle;Signal;HPM_P1;HPM_P2
2023/06/19 00:02:14;;;;;;;5.47;4.70;;;;;;;15.39;84.99;94865.25;5076450;28;20508;-75
2023/06/19 00:04:40;;;;;;;10.38;4.57;;;;;;;15.49;84.63;94870.41;5076464;28;20020;-76
2023/06/19 00:07:05;;;;;;;8.18;4.53;;;;;;;15.51;84.91;94863.19;5077585;28;20039;-75
2023/06/19 00:09:32;;;;;;;7.30;4.38;;;;;;;15.59;84.67;94858.00;5043027;28;20036;-76
2023/06/19 00:11:59;;;;;;;6.22;4.30;;;;;;;15.56;81.34;94868.78;5042821;28;20033;-76
2023/06/19 00:14:25;;;;;;;8.07;4.97;;;;;;;15.43;82.34;94868.38;5076062;28;20036;-75
2023/06/19 00:16:50;;;;;;;6.25;4.28;;;;;;;15.41;82.24;94865.13;5059592;28;20037;-76
2023/06/19 00:19:17;;;;;;;5.53;4.80;;;;;;;15.29;82.49;94859.31;5043073;28;20032;-76
2023/06/19 00:21:42;;;;;;;10.57;4.95;;;;;;;15.38;83.02;94852.34;5059802;28;20418;-75
2023/06/19 00:24:08;;;;;;;8.98;4.68;;;;;;;15.43;82.34;94863.16;5058275;28;20053;-75
2023/06/19 00:26:34;;;;;;;5.28;4.22;;;;;;;15.22;82.35;94860.09;5080052;28;20036;-75
2023/06/19 00:28:59;;;;;;;6.55;4.47;;;;;;;15.28;82.77;94851.63;5096465;28;20027;-75
2023/06/19 00:31:27;;;;;;;6.50;4.40;;;;;;;15.33;82.13;94855.41;5079398;28;20043;-76
2023/06/19 00:33:52;;;;;;;8.85;4.65;;;;;;;15.03;82.21;94851.47;5096426;28;20178;-75
2023/06/19 00:36:21;;;;;;;5.75;4.32;;;;;;;15.11;82.44;94854.13;5079559;28;20031;-75
2023/06/19 00:38:47;;;;;;;7.05;5.13;;;;;;;15.04;82.67;94842.63;5079877;28;20084;-75
2023/06/19 00:41:13;;;;;;;5.80;4.20;;;;;;;14.93;79.28;94840.28;5079511;28;20036;-75
2023/06/19 00:43:38;;;;;;;6.43;4.40;;;;;;;14.92;82.25;94849.91;5062858;28;20041;-75
2023/06/19 00:46:04;;;;;;;9.00;4.40;;;;;;;14.93;82.39;94850.72;5096169;28;20039;-75
2023/06/19 00:48:30;;;;;;;5.28;4.30;;;;;;;14.86;82.19;94842.69;5079353;28;20488;-75
2023/06/19 00:50:58;;;;;;;6.75;4.35;;;;;;;14.89;82.45;94844.19;5079406;28;20051;-75
2023/06/19 00:53:24;;;;;;;5.53;4.43;;;;;;;14.74;82.75;94847.34;5078975;28;20460;-75
2023/06/19 00:55:51;;;;;;;7.03;4.50;;;;;;;14.60;82.17;94844.44;5079187;28;20121;-75
2023/06/19 00:58:17;;;;;;;6.18;4.65;;;;;;;14.71;81.68;94841.59;5062823;28;20015;-75
2023/06/19 01:00:43;;;;;;;6.85;4.60;;;;;;;14.55;81.58;94846.69;5079183;28;20035;-75
2023/06/19 01:03:08;;;;;;;14.98;5.15;;;;;;;14.54;81.94;94843.22;5079176;28;20555;-75
2023/06/19 01:05:33;;;;;;;7.15;4.40;;;;;;;14.52;83.08;94837.34;5093710;28;20032;-75
2023/06/19 01:08:04;;;;;;;8.10;4.35;;;;;;;14.38;83.46;94830.03;5075575;28;20432;-74
2023/06/19 01:10:33;;;;;;;6.03;4.60;;;;;;;14.42;83.22;94829.56;5059677;28;20040;-75
2023/06/19 01:13:05;;;;;;;6.47;4.55;;;;;;;14.37;83.64;94828.34;5075462;28;20032;-74
2023/06/19 01:15:31;;;;;;;6.10;4.70;;;;;;;14.31;82.60;94832.38;5059440;28;20046;-75
2023/06/19 01:17:56;;;;;;;10.10;5.00;;;;;;;14.37;83.14;94830.97;5092559;28;20028;-74
2023/06/19 01:20:22;;;;;;;6.80;4.30;;;;;;;14.34;83.19;94823.44;5075592;28;20387;-75
2023/06/19 01:22:47;;;;;;;7.78;5.07;;;;;;;14.19;83.70;94833.59;5087918;28;20108;-75
2023/06/19 01:25:13;;;;;;;5.40;4.57;;;;;;;14.25;83.63;94830.38;5072034;28;20076;-75
2023/06/19 01:27:39;;;;;;;5.20;4.70;;;;;;;14.16;83.25;94826.88;5038957;28;20055;-75
2023/06/19 01:30:05;;;;;;;7.97;4.88;;;;;;;14.08;82.13;94826.78;5055522;28;20093;-75
2023/06/19 01:32:41;;;;;;;6.32;4.88;;;;;;;14.06;83.23;94831.34;5038608;28;20028;-75
2023/06/19 01:35:08;;;;;;;6.72;4.70;;;;;;;14.13;81.94;94831.59;5071925;28;20040;-74
2023/06/19 01:37:34;;;;;;;5.82;4.43;;;;;;;14.15;82.35;94840.91;5038759;28;20028;-75
2023/06/19 01:39:59;;;;;;;7.85;4.57;;;;;;;14.12;81.50;94841.19;5038405;28;20059;-74
2023/06/19 01:42:26;;;;;;;7.13;4.60;;;;;;;14.08;81.10;94835.44;5071850;28;20028;-75
2023/06/19 01:44:51;;;;;;;9.27;4.25;;;;;;;14.15;80.87;94840.91;5055086;28;20051;-75
2023/06/19 01:47:19;;;;;;;7.28;4.13;;;;;;;14.18;80.35;94845.00;5054929;28;20490;-74
2023/06/19 01:49:46;;;;;;;4.88;4.38;;;;;;;14.20;80.64;94843.06;5071678;28;20402;-75
2023/06/19 01:52:11;;;;;;;5.60;4.18;;;;;;;14.12;80.82;94849.03;5071634;28;20040;-75
2023/06/19 01:54:37;;;;;;;6.03;4.55;;;;;;;14.12;81.25;94849.03;5071426;28;20036;-75
2023/06/19 01:57:02;;;;;;;5.80;4.70;;;;;;;14.06;81.59;94852.22;5054872;28;20032;-75
2023/06/19 01:59:27;;;;;;;6.25;5.15;;;;;;;14.07;81.83;94848.66;5054563;28;20029;-75
2023/06/19 02:01:53;;;;;;;10.40;4.55;;;;;;;14.10;81.57;94848.38;5072563;28;20028;-75
2023/06/19 02:04:18;;;;;;;5.85;4.55;;;;;;;14.20;81.89;94854.34;5054769;28;20446;-75
2023/06/19 02:06:44;;;;;;;6.22;4.30;;;;;;;14.13;81.30;94855.91;5055022;28;20043;-75
2023/06/19 02:09:09;;;;;;;4.93;4.32;;;;;;;14.13;81.47;94855.09;5054514;28;20033;-74
2023/06/19 02:11:35;;;;;;;6.18;4.78;;;;;;;14.11;81.33;94859.63;5054752;28;20047;-75
2023/06/19 02:14:00;;;;;;;9.23;4.78;;;;;;;14.10;81.61;94864.03;5072213;28;20028;-75
2023/06/19 02:16:25;;;;;;;7.15;4.72;;;;;;;14.05;81.73;94855.81;5054518;28;20033;-74
2023/06/19 02:18:51;;;;;;;5.07;4.40;;;;;;;14.05;81.41;94845.38;5054289;28;20483;-74
2023/06/19 02:21:16;;;;;;;7.88;4.88;;;;;;;14.06;81.85;94857.44;5071204;28;20391;-75
2023/06/19 02:23:42;;;;;;;5.95;4.47;;;;;;;14.10;80.84;94853.59;5083880;28;20024;-75
2023/06/19 02:26:07;;;;;;;5.03;4.53;;;;;;;14.15;81.27;94859.19;5092204;28;20036;-75
2023/06/19 02:28:33;;;;;;;5.70;4.82;;;;;;;14.01;81.36;94859.69;5074097;28;20020;-74
2023/06/19 02:30:58;;;;;;;7.00;4.80;;;;;;;13.92;81.21;94845.72;5091122;28;20087;-75
2023/06/19 02:33:23;;;;;;;5.32;4.70;;;;;;;13.99;81.26;94867.69;5073871;28;20452;-75
2023/06/19 02:35:49;;;;;;;5.90;5.10;;;;;;;14.06;81.62;94867.91;5092345;28;20036;-75
2023/06/19 02:38:14;;;;;;;5.20;4.65;;;;;;;14.05;81.10;94871.50;5091141;28;20028;-75
2023/06/19 02:40:40;;;;;;;5.78;4.65;;;;;;;14.02;81.44;94871.78;5073918;28;20486;-75
2023/06/19 02:43:05;;;;;;;8.70;4.70;;;;;;;14.05;81.80;94872.31;5057227;28;20046;-75
2023/06/19 02:45:31;;;;;;;5.50;4.90;;;;;;;14.05;81.25;94871.50;5073827;28;20036;-74
2023/06/19 02:47:56;;;;;;;5.82;4.97;;;;;;;13.93;81.29;94868.28;5073846;28;20035;-74
2023/06/19 02:50:22;;;;;;;6.97;4.72;;;;;;;13.98;82.06;94873.84;5073712;28;20058;-75
2023/06/19 02:52:47;;;;;;;7.88;5.28;;;;;;;14.00;81.55;94873.72;5091702;28;20028;-75
2023/06/19 02:55:12;;;;;;;7.60;4.90;;;;;;;13.88;81.88;94878.31;5092025;28;20028;-74
2023/06/19 02:57:38;;;;;;;5.93;5.30;;;;;;;14.03;82.17;94881.25;5091685;28;20025;-74
2023/06/19 03:00:05;;;;;;;7.07;4.95;;;;;;;14.07;81.17;94880.00;5090385;28;20054;-75
2023/06/19 03:02:31;;;;;;;5.43;4.70;;;;;;;13.92;81.09;94871.81;5090458;28;20024;-75
2023/06/19 03:04:57;;;;;;;5.43;4.82;;;;;;;13.92;80.95;94877.06;5056783;28;20512;-74
2023/06/19 03:07:22;;;;;;;7.47;5.20;;;;;;;13.77;81.35;94858.44;5090411;28;20414;-75
2023/06/19 03:09:47;;;;;;;7.00;5.10;;;;;;;14.01;81.00;94877.97;5056729;28;20036;-75
2023/06/19 03:12:13;;;;;;;5.70;4.63;;;;;;;14.02;81.49;94884.84;5090332;28;20020;-75
2023/06/19 03:14:39;;;;;;;8.18;5.22;;;;;;;13.98;80.81;94888.69;5090067;28;20024;-75
2023/06/19 03:17:05;;;;;;;5.25;4.55;;;;;;;14.05;81.03;94885.38;5073453;28;20064;-75
2023/06/19 03:19:30;;;;;;;5.57;4.97;;;;;;;13.97;81.41;94877.44;5073218;28;20095;-75
2023/06/19 03:21:56;;;;;;;8.00;5.25;;;;;;;14.00;81.83;94878.94;5090192;28;20411;-75
2023/06/19 03:24:21;;;;;;;7.63;5.10;;;;;;;13.96;81.65;94878.41;5072564;28;20029;-75
2023/06/19 03:26:46;;;;;;;5.55;4.65;;;;;;;13.90;81.32;94868.56;5070080;28;20079;-75
2023/06/19 03:29:12;;;;;;;7.45;5.15;;;;;;;13.81;81.64;94872.84;5069281;28;20028;-75
2023/06/19 03:31:39;;;;;;;5.72;4.93;;;;;;;13.95;81.06;94862.88;5053266;28;20123;-75
2023/06/19 03:34:05;;;;;;;9.13;4.93;;;;;;;13.93;81.00;94865.66;5069719;28;20028;-75
2023/06/19 03:36:30;;;;;;;6.38;4.90;;;;;;;13.97;81.05;94879.22;5069971;28;20098;-75
2023/06/19 03:38:56;;;;;;;6.63;5.30;;;;;;;14.00;81.13;94877.13;5052847;28;20036;-75
2023/06/19 03:41:21;;;;;;;7.50;5.18;;;;;;;14.08;80.04;94872.00;5069843;28;20033;-75
2023/06/19 03:43:46;;;;;;;5.75;4.75;;;;;;;14.09;80.53;94883.28;5052927;28;20033;-75
2023/06/19 03:46:12;;;;;;;6.93;5.20;;;;;;;14.09;80.31;94871.03;5053086;28;20036;-75
2023/06/19 03:48:37;;;;;;;5.30;4.80;;;;;;;14.11;79.77;94870.91;5069683;28;20028;-76
2023/06/19 03:51:03;;;;;;;6.80;4.95;;;;;;;14.20;79.70;94862.16;5053082;28;20053;-75
2023/06/19 03:53:28;;;;;;;7.25;5.05;;;;;;;14.29;80.00;94876.97;5069459;28;20056;-75
2023/06/19 03:55:54;;;;;;;8.93;5.13;;;;;;;14.57;79.32;94876.94;5069622;28;20103;-75
2023/06/19 03:58:20;;;;;;;10.70;5.15;;;;;;;14.58;78.41;94873.34;5052815;28;20024;-75
2023/06/19 04:00:45;;;;;;;5.20;4.70;;;;;;;14.77;78.91;94872.38;5052772;28;20506;-75
2023/06/19 04:03:10;;;;;;;5.80;4.65;;;;;;;14.92;78.37;94877.88;5069397;28;20517;-75
2023/06/19 04:05:36;;;;;;;6.82;5.47;;;;;;;14.93;78.35;94869.03;5070554;28;20422;-75
2023/06/19 04:08:01;;;;;;;6.40;4.78;;;;;;;15.37;77.17;94869.00;5070507;28;20029;-75
2023/06/19 04:10:27;;;;;;;5.68;4.57;;;;;;;16.28;75.14;94873.66;5069347;28;20048;-75
2023/06/19 04:12:55;;;;;;;5.80;4.50;;;;;;;16.92;73.64;94861.63;5074122;28;20024;-75
2023/06/19 04:15:21;;;;;;;8.18;4.35;;;;;;;17.58;69.60;94869.41;5088892;28;20024;-75
2023/06/19 04:17:46;;;;;;;4.53;4.13;;;;;;;18.44;67.81;94868.56;5079897;28;20020;-76
2023/06/19 04:20:12;;;;;;;5.35;4.65;;;;;;;18.87;64.72;94873.38;5048062;28;20032;-75
2023/06/19 04:22:40;;;;;;;4.72;3.97;;;;;;;19.57;64.10;94861.72;5078096;28;20055;-76
2023/06/19 04:25:07;;;;;;;7.85;4.22;;;;;;;19.86;60.74;94863.53;5064678;28;20068;-76
2023/06/19 04:27:32;;;;;;;6.70;3.92;;;;;;;20.53;60.29;94865.16;5063278;28;20494;-76
2023/06/19 04:29:58;;;;;;;7.50;3.85;;;;;;;20.87;60.27;94861.88;5060586;28;20043;-76
2023/06/19 04:32:23;;;;;;;5.25;4.07;;;;;;;21.26;59.10;94854.47;5065366;28;20094;-78
2023/06/19 04:34:49;;;;;;;6.20;5.53;;;;;;;21.63;58.28;94855.97;5050326;28;20024;-74
2023/06/19 04:37:18;;;;;;;5.80;3.83;;;;;;;21.89;57.70;94859.78;5084460;28;20028;-74
2023/06/19 04:39:47;;;;;;;5.15;3.50;;;;;;;22.06;57.32;94861.06;5082237;28;20055;-73
2023/06/19 04:42:19;;;;;;;10.40;4.05;;;;;;;21.69;57.29;94828.75;5085677;28;20028;-74
2023/06/19 04:44:47;;;;;;;6.25;3.90;;;;;;;21.94;58.34;94858.16;5071461;28;20032;-74
2023/06/19 04:47:13;;;;;;;7.05;3.38;;;;;;;21.48;60.06;94855.25;5084436;28;20509;-75
2023/06/19 04:49:39;;;;;;;6.43;3.53;;;;;;;21.68;59.43;94866.78;5069389;28;20048;-74
2023/06/19 04:52:04;;;;;;;6.03;3.60;;;;;;;21.14;61.63;94862.91;5073715;28;20020;-75
2023/06/19 04:54:32;;;;;;;9.80;4.50;;;;;;;21.00;62.93;94868.28;5081957;28;20024;-74
2023/06/19 04:56:58;;;;;;;6.55;4.43;;;;;;;21.13;62.34;94860.47;5075473;28;20127;-75
2023/06/19 04:59:23;;;;;;;9.27;3.80;;;;;;;21.21;63.28;94868.25;5074837;28;20414;-77
2023/06/19 05:01:48;;;;;;;3.75;3.35;;;;;;;21.28;62.30;94861.19;5091640;28;20028;-76
2023/06/19 05:04:14;;;;;;;7.15;3.92;;;;;;;21.36;61.67;94866.31;5092084;28;20410;-77
2023/06/19 05:06:39;;;;;;;6.35;3.50;;;;;;;21.42;62.58;94865.59;5093725;28;20028;-76
2023/06/19 05:09:05;;;;;;;5.82;3.63;;;;;;;21.63;59.95;94866.53;5093942;28;20474;-76
2023/06/19 05:11:31;;;;;;;6.43;3.50;;;;;;;21.72;60.12;94856.63;5075231;28;20413;-76
2023/06/19 05:13:56;;;;;;;5.82;3.25;;;;;;;21.65;61.79;94864.53;5075258;28;20512;-76
2023/06/19 05:16:22;;;;;;;6.45;3.25;;;;;;;21.58;62.24;94859.19;5093225;28;20032;-76
2023/06/19 05:18:49;;;;;;;4.63;3.20;;;;;;;21.78;60.19;94854.00;5093445;28;20051;-76
2023/06/19 05:21:14;;;;;;;4.65;3.50;;;;;;;21.50;61.15;94855.88;5076329;28;20028;-76
2023/06/19 05:23:40;;;;;;;4.72;3.50;;;;;;;21.44;62.03;94859.31;5091305;28;20114;-76
2023/06/19 05:26:06;;;;;;;6.47;3.35;;;;;;;21.54;60.78;94857.16;5073823;28;20040;-76
2023/06/19 05:28:31;;;;;;;5.55;3.65;;;;;;;21.82;59.46;94872.97;5074564;28;20482;-76
2023/06/19 05:30:57;;;;;;;4.15;3.63;;;;;;;21.75;58.78;94858.88;5092651;28;20036;-76
2023/06/19 05:33:23;;;;;;;5.90;3.42;;;;;;;21.65;60.41;94877.75;5074613;28;20050;-75
2023/06/19 05:35:52;;;;;;;6.32;3.92;;;;;;;21.54;58.63;94887.03;5091517;28;20028;-76
2023/06/19 05:38:18;;;;;;;5.78;4.03;;;;;;;21.46;57.07;94876.59;5075343;28;20097;-76
2023/06/19 05:40:43;;;;;;;5.38;4.18;;;;;;;21.27;53.46;94885.97;5075677;28;20032;-76
2023/06/19 05:43:09;;;;;;;4.90;3.85;;;;;;;21.64;60.36;94894.59;5075437;28;20024;-76
2023/06/19 05:45:34;;;;;;;5.43;4.03;;;;;;;21.71;58.97;94892.81;5058526;28;20040;-76
2023/06/19 05:48:00;;;;;;;6.65;4.18;;;;;;;21.43;60.11;94892.84;5075427;28;20020;-76
2023/06/19 05:50:25;;;;;;;5.47;4.43;;;;;;;21.61;59.51;94876.47;5092054;28;20048;-76
2023/06/19 05:52:50;;;;;;;5.70;4.45;;;;;;;21.49;58.60;94883.31;5091438;28;20478;-76
2023/06/19 05:55:17;;;;;;;5.90;4.40;;;;;;;21.53;53.67;94884.56;5075059;28;20105;-76
2023/06/19 05:57:42;;;;;;;5.40;4.30;;;;;;;21.77;57.83;94873.53;5075048;28;20062;-76
2023/06/19 06:00:13;;;;;;;5.57;4.57;;;;;;;21.76;57.84;94882.50;5074761;28;20505;-76
2023/06/19 06:02:39;;;;;;;9.05;4.68;;;;;;;21.57;54.22;94896.41;5075857;28;20039;-76
2023/06/19 06:05:05;;;;;;;4.50;4.03;;;;;;;21.80;56.03;94891.66;5091444;28;20020;-76
2023/06/19 06:07:30;;;;;;;5.03;4.10;;;;;;;21.45;53.33;94882.06;5092953;28;20103;-76
2023/06/19 06:09:56;;;;;;;4.97;4.22;;;;;;;21.30;55.13;94898.78;5074819;28;20150;-76
2023/06/19 06:12:21;;;;;;;5.30;4.18;;;;;;;21.26;55.07;94904.66;5074740;28;20082;-76
2023/06/19 06:14:47;;;;;;;7.00;4.28;;;;;;;21.35;55.71;94900.88;5091278;28;20486;-76
2023/06/19 06:17:12;;;;;;;4.60;4.20;;;;;;;21.38;55.49;94898.69;5091838;28;20114;-76
2023/06/19 06:19:38;;;;;;;5.22;3.80;;;;;;;21.29;51.71;94906.94;5091482;28;20036;-76
2023/06/19 06:22:04;;;;;;;4.78;3.85;;;;;;;21.46;51.88;94902.22;5091281;28;20024;-76
2023/06/19 06:24:29;;;;;;;6.38;4.07;;;;;;;21.51;52.03;94889.25;5074460;28;20061;-76
2023/06/19 06:27:18;;;;;;;4.85;3.63;;;;;;;21.73;51.32;94900.53;5091458;28;20035;-76
2023/06/19 06:29:44;;;;;;;6.68;3.97;;;;;;;21.89;51.38;94902.88;5075105;28;20095;-76
2023/06/19 06:32:09;;;;;;;6.38;4.13;;;;;;;21.85;52.25;94897.19;5057525;28;20032;-76
2023/06/19 06:34:35;;;;;;;5.18;4.10;;;;;;;21.92;51.56;94901.69;5073999;28;20451;-76
2023/06/19 06:37:00;;;;;;;5.07;3.75;;;;;;;21.97;50.89;94899.28;5074115;28;20460;-76
2023/06/19 06:39:26;;;;;;;4.78;3.65;;;;;;;22.08;49.54;94896.88;5073858;28;20032;-76
2023/06/19 06:41:51;;;;;;;4.57;3.45;;;;;;;22.06;49.28;94898.09;5090935;28;20039;-76
2023/06/19 06:44:17;;;;;;;4.93;3.97;;;;;;;22.06;49.62;94908.66;5092047;28;20027;-76
2023/06/19 06:46:42;;;;;;;5.55;3.55;;;;;;;22.01;49.72;94903.19;5090966;28;20478;-76
2023/06/19 06:49:08;;;;;;;4.38;3.67;;;;;;;22.19;49.33;94907.97;5090450;28;20048;-76
2023/06/19 06:51:33;;;;;;;5.20;3.70;;;;;;;22.22;50.07;94908.38;5073728;28;20141;-76
2023/06/19 06:53:58;;;;;;;7.18;3.80;;;;;;;22.29;49.68;94908.44;5073878;28;20028;-76
2023/06/19 06:56:24;;;;;;;4.75;3.70;;;;;;;22.11;49.60;94906.25;5073917;28;20024;-76
2023/06/19 06:58:49;;;;;;;4.00;3.55;;;;;;;22.27;48.22;94921.84;5073569;28;20032;-76
2023/06/19 07:01:15;;;;;;;4.50;3.65;;;;;;;22.59;51.25;94919.50;5090650;28;20032;-76
2023/06/19 07:03:40;;;;;;;3.95;3.55;;;;;;;22.64;51.22;94898.56;5089471;28;20028;-76
2023/06/19 07:06:06;;;;;;;6.25;4.13;;;;;;;22.78;49.27;94911.84;5090696;28;20035;-76
2023/06/19 07:08:31;;;;;;;3.90;3.25;;;;;;;22.92;50.20;94909.00;5073510;28;20024;-76
2023/06/19 07:10:56;;;;;;;4.75;3.50;;;;;;;23.06;50.72;94907.22;5090539;28;20032;-76
2023/06/19 07:13:22;;;;;;;5.13;3.80;;;;;;;23.20;48.28;94906.22;5073229;28;20028;-76
2023/06/19 07:15:48;;;;;;;5.45;3.33;;;;;;;23.27;47.64;94895.63;5073702;28;20036;-77
2023/06/19 07:18:13;;;;;;;4.13;3.40;;;;;;;23.28;47.23;94909.69;5073350;28;20399;-76
2023/06/19 07:20:39;;;;;;;3.83;3.40;;;;;;;23.21;46.56;94912.34;5073293;28;20028;-76
2023/06/19 07:23:04;;;;;;;4.70;3.30;;;;;;;23.51;46.08;94909.28;5090097;28;20516;-76
2023/06/19 07:25:29;;;;;;;7.28;3.47;;;;;;;23.64;46.58;94902.13;5090223;28;20039;-76
2023/06/19 07:27:55;;;;;;;4.68;3.20;;;;;;;23.81;44.41;94901.75;5073069;28;20509;-76
2023/06/19 07:30:20;;;;;;;4.82;3.53;;;;;;;23.69;44.92;94898.88;5073330;28;20036;-76
2023/06/19 07:32:46;;;;;;;4.25;3.45;;;;;;;23.77;44.99;94911.97;5089960;28;20040;-76
2023/06/19 07:35:11;;;;;;;4.38;3.00;;;;;;;23.94;44.08;94907.03;5090182;28;20058;-76
2023/06/19 07:37:37;;;;;;;5.25;3.25;;;;;;;24.01;44.11;94905.16;5089961;28;20032;-77
2023/06/19 07:40:03;;;;;;;5.13;3.10;;;;;;;24.30;44.07;94911.81;5073050;28;20049;-76
2023/06/19 07:42:28;;;;;;;3.72;3.35;;;;;;;24.64;43.32;94903.75;5089846;28;20421;-76
2023/06/19 07:44:53;;;;;;;5.78;3.55;;;;;;;24.65;46.33;94903.53;5056142;28;20040;-76
2023/06/19 07:47:20;;;;;;;6.70;3.50;;;;;;;24.46;46.01;94899.13;5089854;28;20023;-76
2023/06/19 07:49:45;;;;;;;5.50;3.50;;;;;;;24.48;44.03;94903.19;5088534;28;20056;-76
2023/06/19 07:52:11;;;;;;;4.28;3.45;;;;;;;24.33;42.86;94894.66;5072828;28;20101;-76
2023/06/19 07:54:36;;;;;;;3.25;2.95;;;;;;;24.05;41.25;94903.72;5090746;28;20571;-76
2023/06/19 07:57:02;;;;;;;5.75;3.40;;;;;;;23.93;41.90;94900.09;5072937;28;20024;-76
2023/06/19 07:59:27;;;;;;;3.35;2.95;;;;;;;24.29;41.35;94904.06;5056000;28;20039;-76
2023/06/19 08:01:53;;;;;;;4.70;3.35;;;;;;;24.21;41.37;94904.28;5071639;28;20031;-76
2023/06/19 08:04:18;;;;;;;5.63;3.03;;;;;;;24.55;43.47;94899.72;5089663;28;20511;-77
2023/06/19 08:06:43;;;;;;;4.97;3.25;;;;;;;24.41;40.79;94902.41;5089806;28;20032;-76
2023/06/19 08:09:09;;;;;;;4.05;3.30;;;;;;;24.64;41.65;94887.81;5072716;28;20486;-76
2023/06/19 08:11:35;;;;;;;8.23;3.15;;;;;;;24.67;42.05;94900.66;5089759;28;20032;-77
2023/06/19 08:14:00;;;;;;;4.28;3.25;;;;;;;24.45;40.81;94908.94;5090646;28;20031;-77
2023/06/19 08:16:26;;;;;;;4.13;2.92;;;;;;;24.42;41.96;94905.84;5093282;28;20456;-78
2023/06/19 08:18:51;;;;;;;3.83;3.08;;;;;;;24.45;41.83;94908.94;5076830;28;20024;-78
2023/06/19 08:21:17;;;;;;;5.25;3.22;;;;;;;24.67;41.90;94905.97;5060231;28;20332;-77
2023/06/19 08:23:43;;;;;;;3.80;2.80;;;;;;;24.28;40.60;94905.09;5076783;28;20540;-78
2023/06/19 08:26:09;;;;;;;5.47;3.22;;;;;;;24.80;42.05;94903.25;5093831;28;20077;-78
2023/06/19 08:28:35;;;;;;;4.10;3.13;;;;;;;24.83;40.48;94904.69;5076727;28;20106;-78
2023/06/19 08:31:00;;;;;;;4.43;3.10;;;;;;;24.77;41.37;94898.38;5093531;28;20036;-78
2023/06/19 08:33:26;;;;;;;3.35;2.88;;;;;;;25.03;40.38;94909.88;5093372;28;20028;-78
2023/06/19 08:35:52;;;;;;;3.65;2.75;;;;;;;25.15;39.89;94913.47;5059915;28;20039;-78
2023/06/19 08:38:18;;;;;;;4.82;3.00;;;;;;;25.08;40.00;94904.72;5076475;28;20024;-78
2023/06/19 08:40:43;;;;;;;3.45;2.95;;;;;;;25.17;38.57;94908.78;5094794;28;20036;-78
2023/06/19 08:43:09;;;;;;;3.45;2.83;;;;;;;25.22;41.42;94898.31;5093233;28;20032;-78
2023/06/19 08:45:34;;;;;;;4.70;3.00;;;;;;;25.29;39.54;94901.72;5076370;28;20039;-78
2023/06/19 08:48:03;;;;;;;4.25;2.88;;;;;;;25.07;37.87;94909.19;5093086;28;20028;-78
2023/06/19 08:50:32;;;;;;;4.00;2.95;;;;;;;24.78;37.57;94900.00;5093205;28;20131;-78
2023/06/19 08:52:57;;;;;;;3.53;2.88;;;;;;;24.95;39.51;94902.97;5075920;28;20433;-78
2023/06/19 08:55:23;;;;;;;3.65;2.97;;;;;;;25.15;39.46;94910.81;5094493;28;20040;-78
2023/06/19 08:57:49;;;;;;;5.20;3.10;;;;;;;25.18;40.38;94870.53;5092944;28;20104;-78
2023/06/19 09:00:25;;;;;;;3.38;2.90;;;;;;;25.08;36.48;94904.72;5092857;28;20036;-78
2023/06/19 09:02:50;;;;;;;3.15;2.85;;;;;;;25.09;37.08;94901.03;5076516;28;20021;-78
2023/06/19 09:05:17;;;;;;;3.28;2.70;;;;;;;25.21;38.60;94909.97;5092700;28;20036;-78
2023/06/19 09:07:43;;;;;;;3.97;2.97;;;;;;;25.50;38.35;94905.06;5076123;28;20074;-78
2023/06/19 09:10:17;;;;;;;3.20;2.65;;;;;;;25.41;37.25;94907.97;5094002;28;20466;-78
2023/06/19 09:12:44;;;;;;;3.45;2.83;;;;;;;25.53;36.68;94892.13;5092718;28;20067;-78
2023/06/19 09:15:13;;;;;;;4.65;3.05;;;;;;;25.73;36.27;94905.25;5092721;28;20101;-78
2023/06/19 09:17:39;;;;;;;3.88;2.75;;;;;;;25.28;37.47;94889.47;5076015;28;20027;-78
2023/06/19 09:20:05;;;;;;;4.28;3.20;;;;;;;25.62;37.98;94897.97;5092474;28;20071;-78
2023/06/19 09:22:31;;;;;;;3.42;2.85;;;;;;;25.71;36.98;94895.84;5093715;28;20039;-78
2023/06/19 09:25:00;;;;;;;3.95;3.20;;;;;;;25.72;36.58;94898.31;5092569;28;20032;-78
2023/06/19 09:27:25;;;;;;;3.30;3.00;;;;;;;25.32;36.04;94893.31;5058264;28;20020;-78
2023/06/19 09:29:51;;;;;;;5.45;3.00;;;;;;;25.64;36.67;94898.59;5075535;28;20563;-78
2023/06/19 09:32:19;;;;;;;6.68;3.10;;;;;;;25.47;36.80;94898.31;5093660;28;20032;-78
2023/06/19 09:34:44;;;;;;;3.78;2.85;;;;;;;25.42;35.37;94898.16;5093345;28;20463;-78
2023/06/19 09:37:10;;;;;;;4.15;2.97;;;;;;;25.61;38.77;94901.69;5092287;28;20031;-78
2023/06/19 09:39:37;;;;;;;4.53;2.90;;;;;;;25.79;37.60;94888.41;5093527;28;20137;-78
2023/06/19 09:42:03;;;;;;;4.32;2.95;;;;;;;25.87;36.85;94886.53;5075605;28;20051;-78
2023/06/19 09:44:31;;;;;;;3.78;2.90;;;;;;;25.70;34.27;94889.72;5092166;28;20024;-78
2023/06/19 09:46:56;;;;;;;3.30;2.88;;;;;;;25.52;36.43;94866.59;5093312;28;20043;-78
2023/06/19 09:49:22;;;;;;;4.60;2.92;;;;;;;25.52;36.10;94889.69;5075147;28;20490;-78
2023/06/19 09:51:47;;;;;;;4.45;2.70;;;;;;;25.87;37.96;94891.84;5060129;28;20044;-78
2023/06/19 09:54:12;;;;;;;4.63;2.58;;;;;;;26.02;35.65;94886.97;5058682;28;20032;-78
2023/06/19 09:56:38;;;;;;;2.67;2.40;;;;;;;26.03;34.60;94878.78;5058622;28;20086;-77
2023/06/19 09:59:04;;;;;;;2.83;2.53;;;;;;;25.90;33.13;94881.56;5075102;28;20024;-77
2023/06/19 10:01:30;;;;;;;3.85;2.60;;;;;;;25.65;33.93;94886.91;5075348;28;20108;-77
2023/06/19 10:04:06;;;;;;;3.90;2.67;;;;;;;25.37;33.98;94882.84;5091990;28;20410;-77
2023/06/19 10:06:32;;;;;;;3.72;2.65;;;;;;;25.34;33.30;94875.31;5091921;28;20536;-78
2023/06/19 10:09:06;;;;;;;3.65;2.80;;;;;;;25.37;34.80;94882.84;5058478;28;20035;-78
2023/06/19 10:11:44;;;;;;;5.00;2.83;;;;;;;25.64;34.89;94872.00;5091836;28;20035;-77
2023/06/19 10:14:10;;;;;;;6.10;2.53;;;;;;;25.50;33.64;94875.81;5091489;28;20030;-77
2023/06/19 10:16:35;;;;;;;3.58;2.80;;;;;;;25.40;33.79;94869.13;5091973;28;20032;-78
2023/06/19 10:19:11;;;;;;;3.35;2.50;;;;;;;25.73;34.16;94865.34;5057807;28;20032;-78
2023/06/19 10:21:47;;;;;;;2.75;2.45;;;;;;;25.85;33.67;94860.97;5091818;28;20042;-77
2023/06/19 10:24:19;;;;;;;3.17;2.50;;;;;;;25.46;33.11;94862.13;5074696;28;20055;-77
2023/06/19 10:26:55;;;;;;;2.85;2.35;;;;;;;25.62;32.97;94866.88;5075036;28;20483;-77
2023/06/19 10:29:20;;;;;;;3.90;2.75;;;;;;;25.44;31.50;94866.06;5075591;28;20024;-78
2023/06/19 10:31:46;;;;;;;3.08;2.33;;;;;;;25.25;31.71;94857.22;5091676;28;20085;-77
2023/06/19 10:34:12;;;;;;;3.30;2.47;;;;;;;25.63;32.67;94859.72;5092312;28;20024;-77
2023/06/19 10:36:37;;;;;;;3.20;2.70;;;;;;;25.66;34.17;94861.94;5074616;28;20046;-77
2023/06/19 10:39:02;;;;;;;5.40;2.95;;;;;;;25.76;31.08;94856.13;5074086;28;20119;-78
2023/06/19 10:41:28;;;;;;;3.00;2.30;;;;;;;25.78;29.79;94844.22;5074463;28;20032;-77
2023/06/19 10:44:04;;;;;;;3.00;2.30;;;;;;;25.57;30.19;94857.94;5092318;28;20474;-77
2023/06/19 10:46:31;;;;;;;3.75;2.30;;;;;;;25.62;31.34;94852.78;5091174;28;20550;-78
2023/06/19 10:49:00;;;;;;;2.88;2.58;;;;;;;25.71;33.17;94859.44;5090814;28;20108;-78
2023/06/19 10:51:26;;;;;;;3.90;2.43;;;;;;;25.98;33.86;94848.56;5091643;28;20059;-78
2023/06/19 10:53:54;;;;;;;3.13;2.70;;;;;;;26.27;32.45;94858.47;5090837;28;20290;-78
2023/06/19 10:56:20;;;;;;;3.22;2.60;;;;;;;26.26;31.90;94850.69;5057557;28;20445;-78
2023/06/19 10:58:45;;;;;;;4.63;2.88;;;;;;;26.21;32.27;94846.00;5073783;28;20028;-77
2023/06/19 11:01:10;;;;;;;3.22;2.50;;;;;;;26.17;30.62;94836.88;5092367;28;20047;-77
2023/06/19 11:03:36;;;;;;;4.63;2.70;;;;;;;26.07;31.83;94831.25;5090733;28;20028;-77
2023/06/19 11:06:01;;;;;;;3.03;2.25;;;;;;;26.33;31.38;94831.94;5074244;28;20481;-78
2023/06/19 11:08:27;;;;;;;6.35;2.72;;;;;;;26.56;31.13;94840.09;5091841;28;20069;-78
2023/06/19 11:10:52;;;;;;;2.78;2.40;;;;;;;26.60;31.93;94843.09;5073745;28;20024;-78
2023/06/19 11:13:18;;;;;;;4.07;2.80;;;;;;;26.56;31.81;94829.44;5073431;28;20402;-78
2023/06/19 11:15:44;;;;;;;4.05;3.05;;;;;;;26.51;32.65;94838.09;5057031;28;20032;-78
2023/06/19 11:18:09;;;;;;;3.28;2.60;;;;;;;26.39;32.92;94836.41;5073387;28;20024;-75
2023/06/19 11:20:44;;;;;;;2.92;2.50;;;;;;;26.42;32.71;94846.59;5092047;28;20043;-75
2023/06/19 11:23:10;;;;;;;3.60;2.75;;;;;;;26.48;33.53;94841.16;5091414;28;20030;-77
2023/06/19 11:25:39;;;;;;;3.28;2.85;;;;;;;26.51;34.27;94842.59;5073556;28;20418;-78
2023/06/19 11:28:10;;;;;;;4.38;2.95;;;;;;;26.37;35.11;94841.13;5091507;28;20024;-78
2023/06/19 11:30:35;;;;;;;4.07;2.70;;;;;;;26.33;33.72;94838.09;5090370;28;20115;-78